createdAt,value
2018-01-26T00:00:55.228Z,13.50
2018-01-26T00:03:22.697Z,13.93
2018-01-26T00:05:50.187Z,14.05
2018-01-26T00:08:18.447Z,13.73
2018-01-26T00:10:45.922Z,13.50
2018-01-26T00:13:13.477Z,13.25
2018-01-26T00:15:40.937Z,12.52
2018-01-26T00:18:09.167Z,12.65
2018-01-26T00:20:36.636Z,14.20
2018-01-26T00:23:04.907Z,14.07
2018-01-26T00:25:32.403Z,12.88
2018-01-26T00:27:59.940Z,13.48
2018-01-26T00:30:27.426Z,13.50
2018-01-26T00:32:55.665Z,13.55
2018-01-26T00:35:23.238Z,13.50
2018-01-26T00:37:50.797Z,14.20
2018-01-26T00:40:18.274Z,12.68
2018-01-26T00:42:46.528Z,14.35
2018-01-26T00:45:14.017Z,12.52
2018-01-26T00:47:41.473Z,12.15
2018-01-26T00:50:08.997Z,14.43
2018-01-26T00:52:36.561Z,12.80
2018-01-26T00:55:04.040Z,12.50
2018-01-26T00:57:32.293Z,13.02
2018-01-26T00:59:59.851Z,12.30
2018-01-26T01:02:27.414Z,12.25
2018-01-26T01:04:54.873Z,13.68
2018-01-26T01:07:22.369Z,12.73
2018-01-26T01:09:49.885Z,14.65
2018-01-26T01:12:18.158Z,14.25
2018-01-26T01:14:45.717Z,13.82
2018-01-26T01:17:13.180Z,13.45
2018-01-26T01:19:41.439Z,13.48
2018-01-26T01:22:08.958Z,13.00
2018-01-26T01:24:36.451Z,13.27
2018-01-26T01:27:03.916Z,13.30
2018-01-26T01:29:31.391Z,13.90
2018-01-26T01:31:59.622Z,12.95
2018-01-26T01:34:27.096Z,13.88
2018-01-26T01:36:54.652Z,12.70
2018-01-26T01:39:22.117Z,13.07
2018-01-26T01:41:49.588Z,14.77
2018-01-26T01:44:17.055Z,15.85
2018-01-26T01:46:45.287Z,14.70
2018-01-26T01:49:16.609Z,15.70
2018-01-26T01:51:44.075Z,15.88
2018-01-26T01:54:11.625Z,15.63
2018-01-26T01:56:39.124Z,15.75
2018-01-26T01:59:06.684Z,15.15
2018-01-26T02:01:34.154Z,13.95
2018-01-26T02:04:01.704Z,13.77
2018-01-26T02:06:29.185Z,13.93
2018-01-26T02:08:57.460Z,14.18
2018-01-26T02:11:24.997Z,13.75
2018-01-26T02:13:52.467Z,12.55
2018-01-26T02:16:20.700Z,14.13
2018-01-26T02:18:48.175Z,12.18
2018-01-26T02:21:15.644Z,14.77
2018-01-26T02:24:00.743Z,13.00
2018-01-26T02:26:28.224Z,12.15
2018-01-26T02:28:55.692Z,12.35
2018-01-26T02:31:23.185Z,13.13
2018-01-26T02:33:50.744Z,12.40
2018-01-26T02:36:18.292Z,12.90
2018-01-26T02:38:45.775Z,12.13
2018-01-26T02:41:13.996Z,13.23
2018-01-26T02:43:41.491Z,12.65
2018-01-26T02:46:08.964Z,13.45
2018-01-26T02:48:37.234Z,14.32
2018-01-26T02:51:05.460Z,14.65
2018-01-26T02:53:32.948Z,13.07
2018-01-26T02:56:00.430Z,15.68
2018-01-26T02:58:28.665Z,13.50
2018-01-26T03:00:56.132Z,14.93
2018-01-26T03:03:23.699Z,13.80
2018-01-26T03:05:51.261Z,15.00
2018-01-26T03:08:18.746Z,15.05
2018-01-26T03:10:46.263Z,14.63
2018-01-26T03:13:13.824Z,13.50
2018-01-26T03:15:42.109Z,14.25
2018-01-26T03:18:09.582Z,12.95
2018-01-26T03:20:37.823Z,13.70
2018-01-26T03:23:05.285Z,13.15
2018-01-26T03:25:32.844Z,13.65
2018-01-26T03:28:00.404Z,14.45
2018-01-26T03:30:27.874Z,13.70
2018-01-26T03:32:55.348Z,13.55
2018-01-26T03:35:23.586Z,12.68
2018-01-26T03:37:51.047Z,13.23
2018-01-26T03:40:18.612Z,13.23
2018-01-26T03:42:46.084Z,12.70
2018-01-26T03:45:14.336Z,13.07
2018-01-26T03:47:41.796Z,12.90
2018-01-26T03:50:09.277Z,12.57
2018-01-26T03:52:40.359Z,11.70
2018-01-26T03:55:07.856Z,13.15
2018-01-26T03:57:35.335Z,12.68
2018-01-26T04:00:03.595Z,12.35
2018-01-26T04:02:31.068Z,12.80
2018-01-26T04:04:59.298Z,12.02
2018-01-26T04:07:26.770Z,11.45
2018-01-26T04:09:54.337Z,13.00
2018-01-26T04:12:21.900Z,12.80
2018-01-26T04:14:49.360Z,12.75
2018-01-26T04:17:16.911Z,13.50
2018-01-26T04:19:44.367Z,14.73
2018-01-26T04:22:12.603Z,17.35
2018-01-26T04:24:40.106Z,18.40
2018-01-26T04:27:07.660Z,16.15
2018-01-26T04:29:35.116Z,16.25
2018-01-26T04:32:02.581Z,16.65
2018-01-26T04:34:30.044Z,16.98
2018-01-26T04:36:58.280Z,17.30
2018-01-26T04:39:25.745Z,15.90
2018-01-26T04:41:53.243Z,17.33
2018-01-26T04:44:21.469Z,17.75
2018-01-26T04:46:48.942Z,17.90
2018-01-26T04:49:16.409Z,17.65
2018-01-26T04:51:43.870Z,18.58
2018-01-26T04:54:11.425Z,20.10
2018-01-26T04:56:38.979Z,18.92
2018-01-26T04:59:06.449Z,19.58
2018-01-26T05:01:34.002Z,20.02
2018-01-26T05:04:01.552Z,19.60
2018-01-26T05:06:29.112Z,20.75
2018-01-26T05:08:56.584Z,19.33
2018-01-26T05:11:24.832Z,20.17
2018-01-26T05:13:52.276Z,19.50
2018-01-26T05:16:19.754Z,21.95
2018-01-26T05:18:47.237Z,21.02
2018-01-26T05:21:15.498Z,20.45
2018-01-26T05:23:44.469Z,22.17
2018-01-26T05:26:12.036Z,21.73
2018-01-26T05:28:39.495Z,22.87
2018-01-26T05:31:06.951Z,21.77
2018-01-26T05:33:34.418Z,23.25
2018-01-26T05:36:01.916Z,22.60
2018-01-26T05:38:29.424Z,23.52
2018-01-26T05:40:56.893Z,23.17
2018-01-26T05:43:24.443Z,22.33
2018-01-26T05:45:52.006Z,21.30
2018-01-26T05:48:19.560Z,22.95
2018-01-26T05:50:47.034Z,24.08
2018-01-26T05:53:15.252Z,23.65
2018-01-26T05:55:42.792Z,24.05
2018-01-26T05:58:10.341Z,22.65
2018-01-26T06:00:37.804Z,22.98
2018-01-26T06:03:05.314Z,23.17
2018-01-26T06:05:32.780Z,24.67
2018-01-26T06:08:00.256Z,25.25
2018-01-26T06:10:28.481Z,24.45
2018-01-26T06:12:55.952Z,24.73
2018-01-26T06:15:23.412Z,24.20
2018-01-26T06:17:50.881Z,23.80
2018-01-26T06:20:18.495Z,23.48
2018-01-26T06:22:45.958Z,25.70
2018-01-26T06:25:13.429Z,24.23
2018-01-26T06:27:40.897Z,26.48
2018-01-26T06:30:08.351Z,25.77
2018-01-26T06:32:35.920Z,23.77
2018-01-26T06:35:03.476Z,23.87
2018-01-26T06:37:31.045Z,23.83
2018-01-26T06:39:58.512Z,23.52
2018-01-26T06:42:25.972Z,25.40
2018-01-26T06:44:54.214Z,27.92
2018-01-26T06:47:21.689Z,26.05
2018-01-26T06:49:49.167Z,24.37
2018-01-26T06:52:17.390Z,24.95
2018-01-26T06:54:44.877Z,26.08
2018-01-26T06:57:12.344Z,25.52
2018-01-26T06:59:39.803Z,24.50
2018-01-26T07:02:08.075Z,24.58
2018-01-26T07:04:35.552Z,24.30
2018-01-26T07:07:03.791Z,26.50
2018-01-26T07:09:31.244Z,25.40
2018-01-26T07:11:58.815Z,25.05
2018-01-26T07:14:26.275Z,26.05
2018-01-26T07:16:54.546Z,25.48
2018-01-26T07:19:23.557Z,23.95
2018-01-26T07:21:51.009Z,26.10
2018-01-26T07:24:19.249Z,27.15
2018-01-26T07:26:46.782Z,26.25
2018-01-26T07:29:14.265Z,24.40
2018-01-26T07:31:41.725Z,24.77
2018-01-26T07:34:09.204Z,24.83
2018-01-26T07:36:36.713Z,25.35
2018-01-26T07:39:04.169Z,26.62
2018-01-26T07:41:31.663Z,29.92
2018-01-26T07:43:59.127Z,27.17
2018-01-26T07:46:26.596Z,27.45
2018-01-26T07:48:54.053Z,29.35
2018-01-26T07:51:21.531Z,28.27
2018-01-26T07:53:49.054Z,27.42
2018-01-26T07:56:16.511Z,26.92
2018-01-26T07:58:43.968Z,27.20
2018-01-26T08:01:11.520Z,27.58
2018-01-26T08:03:39.071Z,27.67
2018-01-26T08:06:06.532Z,28.70
2018-01-26T08:08:33.992Z,26.83
2018-01-26T08:11:01.452Z,28.80
2018-01-26T08:13:28.915Z,26.90
2018-01-26T08:15:56.381Z,26.02
2018-01-26T08:18:23.925Z,27.35
2018-01-26T08:20:51.393Z,27.83
2018-01-26T08:23:19.047Z,28.42
2018-01-26T08:25:46.501Z,26.48
2018-01-26T08:28:14.052Z,27.00
2018-01-26T08:30:41.613Z,28.15
2018-01-26T08:33:09.079Z,29.05
2018-01-26T08:35:36.530Z,29.87
2018-01-26T08:38:04.001Z,29.15
2018-01-26T08:40:31.456Z,31.10
2018-01-26T08:42:58.923Z,29.15
2018-01-26T08:45:27.144Z,29.15
2018-01-26T08:47:54.621Z,28.62
2018-01-26T08:50:22.076Z,30.05
2018-01-26T08:52:49.644Z,28.83
2018-01-26T08:55:17.653Z,29.40
2018-01-26T08:57:45.186Z,27.73
2018-01-26T09:00:12.656Z,28.30
2018-01-26T09:02:40.885Z,29.75
2018-01-26T09:05:08.347Z,28.90
2018-01-26T09:07:35.825Z,29.87
2018-01-26T09:10:03.299Z,28.45
2018-01-26T09:12:31.557Z,28.87
2018-01-26T09:14:59.025Z,28.62
2018-01-26T09:17:27.340Z,29.05
2018-01-26T09:19:54.800Z,27.60
2018-01-26T09:22:22.260Z,28.92
2018-01-26T09:24:49.747Z,29.00
2018-01-26T09:27:17.308Z,29.25
2018-01-26T09:29:44.781Z,28.83
2018-01-26T09:32:12.254Z,27.92
2018-01-26T09:34:40.513Z,27.50
2018-01-26T09:37:08.779Z,26.75
2018-01-26T09:39:36.380Z,27.90
2018-01-26T09:42:03.893Z,28.70
2018-01-26T09:44:32.129Z,28.95
2018-01-26T09:46:59.634Z,27.33
2018-01-26T09:49:27.093Z,29.85
2018-01-26T09:51:54.556Z,29.85
2018-01-26T09:54:22.780Z,32.75
2018-01-26T09:56:50.271Z,30.67
2018-01-26T09:59:17.886Z,33.17
2018-01-26T10:01:45.352Z,32.47
2018-01-26T10:04:12.852Z,31.62
2018-01-26T10:06:40.317Z,32.83
2018-01-26T10:09:08.575Z,32.47
2018-01-26T10:11:36.041Z,32.42
2018-01-26T10:14:03.510Z,34.33
2018-01-26T10:16:31.744Z,31.12
2018-01-26T10:18:59.209Z,31.27
2018-01-26T10:21:26.669Z,32.08
2018-01-26T10:23:54.180Z,32.78
2018-01-26T10:26:21.803Z,32.80
2018-01-26T10:28:49.352Z,34.25
2018-01-26T10:31:16.818Z,31.67
2018-01-26T10:33:44.278Z,35.22
2018-01-26T10:36:11.728Z,33.47
2018-01-26T10:38:39.250Z,33.97
2018-01-26T10:41:06.740Z,34.38
2018-01-26T10:43:34.225Z,33.75
2018-01-26T10:46:02.482Z,33.95
2018-01-26T10:48:29.945Z,32.85
2018-01-26T10:50:58.204Z,32.60
2018-01-26T10:53:25.770Z,33.13
2018-01-26T10:55:53.235Z,34.17
2018-01-26T10:58:20.692Z,34.35
2018-01-26T11:00:48.158Z,35.25
2018-01-26T11:03:16.466Z,34.00
2018-01-26T11:05:43.985Z,32.25
2018-01-26T11:08:12.223Z,33.45
2018-01-26T11:10:39.706Z,34.20
2018-01-26T11:13:07.264Z,34.38
2018-01-26T11:15:34.815Z,31.83
2018-01-26T11:18:02.367Z,33.47
2018-01-26T11:20:29.942Z,34.10
2018-01-26T11:22:58.179Z,33.40
2018-01-26T11:25:25.643Z,29.67
2018-01-26T11:27:53.157Z,31.40
2018-01-26T11:30:21.393Z,31.17
2018-01-26T11:32:48.881Z,31.40
2018-01-26T11:35:17.117Z,30.17
2018-01-26T11:37:44.575Z,28.60
2018-01-26T11:40:12.032Z,28.85
2018-01-26T11:42:39.600Z,32.95
2018-01-26T11:45:07.096Z,30.55
2018-01-26T11:47:34.569Z,29.55
2018-01-26T11:50:02.081Z,29.37
2018-01-26T11:52:29.541Z,28.90
2018-01-26T11:54:57.100Z,26.27
2018-01-26T11:57:25.473Z,25.90
2018-01-26T11:59:53.034Z,26.73
2018-01-26T12:02:20.496Z,27.67
2018-01-26T12:04:48.041Z,24.08
2018-01-26T12:07:15.602Z,27.08
2018-01-26T12:09:43.146Z,23.05
2018-01-26T12:12:10.604Z,24.25
2018-01-26T12:14:38.072Z,22.73
2018-01-26T12:17:05.555Z,22.05
2018-01-26T12:19:33.780Z,24.63
2018-01-26T12:22:01.240Z,24.20
2018-01-26T12:24:28.716Z,21.48
2018-01-26T12:26:56.192Z,22.05
2018-01-26T12:29:24.440Z,21.55
2018-01-26T12:31:51.901Z,21.50
2018-01-26T12:34:20.901Z,20.45
2018-01-26T12:36:48.361Z,19.55
2018-01-26T12:39:15.922Z,18.45
2018-01-26T12:41:44.247Z,16.73
2018-01-26T12:44:11.707Z,12.23
2018-01-26T12:46:39.209Z,10.63
2018-01-26T12:49:06.767Z,11.38
2018-01-26T12:51:34.348Z,9.63
2018-01-26T12:54:02.580Z,7.78
2018-01-26T12:56:30.082Z,7.65
2018-01-26T12:58:58.328Z,8.13
2018-01-26T13:01:26.616Z,6.53
2018-01-26T13:03:54.164Z,7.28
2018-01-26T13:06:21.725Z,6.35
2018-01-26T13:08:49.280Z,6.47
2018-01-26T13:11:16.751Z,6.82
2018-01-26T13:13:44.263Z,6.87
2018-01-26T13:16:11.719Z,7.37
2018-01-26T13:18:39.167Z,6.00
2018-01-26T13:21:06.728Z,6.50
2018-01-26T13:23:34.283Z,6.37
2018-01-26T13:26:01.769Z,8.52
2018-01-26T13:28:29.226Z,6.97
2018-01-26T13:30:56.701Z,6.47
2018-01-26T13:33:24.178Z,6.35
2018-01-26T13:35:52.396Z,6.30
2018-01-26T13:38:19.920Z,5.70
2018-01-26T13:40:47.336Z,4.95
2018-01-26T13:43:14.792Z,4.95
2018-01-26T13:45:42.356Z,5.18
2018-01-26T13:48:10.632Z,4.80
2018-01-26T13:50:38.183Z,5.00
2018-01-26T13:53:05.642Z,4.30
2018-01-26T13:55:35.032Z,4.90
2018-01-26T13:58:02.490Z,4.47
2018-01-26T14:00:29.943Z,4.43
2018-01-26T14:02:57.452Z,4.30
2018-01-26T14:05:25.693Z,5.32
2018-01-26T14:07:53.228Z,4.97
2018-01-26T14:10:21.400Z,4.65
2018-01-26T14:12:48.936Z,4.82
2018-01-26T14:15:16.405Z,4.95
2018-01-26T14:17:43.957Z,6.25
2018-01-26T14:20:11.497Z,4.70
2018-01-26T14:22:39.029Z,4.40
2018-01-26T14:25:07.002Z,5.37
2018-01-26T14:27:34.444Z,5.53
2018-01-26T14:30:01.905Z,5.65
2018-01-26T14:32:29.364Z,4.95
2018-01-26T14:34:56.857Z,5.37
2018-01-26T14:37:24.334Z,5.45
2018-01-26T14:39:52.400Z,5.30
2018-01-26T14:42:19.862Z,4.20
2018-01-26T14:44:47.311Z,4.30
2018-01-26T14:47:14.774Z,3.72
2018-01-26T14:49:42.267Z,4.35
2018-01-26T14:52:09.725Z,3.90
2018-01-26T14:54:37.183Z,4.00
2018-01-26T14:57:04.652Z,3.95
2018-01-26T14:59:32.204Z,3.72
2018-01-26T15:01:59.668Z,3.78
2018-01-26T15:04:27.208Z,3.78
2018-01-26T15:06:54.675Z,3.20
2018-01-26T15:09:22.127Z,4.00
2018-01-26T15:11:49.585Z,4.53
2018-01-26T15:14:17.140Z,3.60
2018-01-26T15:16:44.688Z,4.22
2018-01-26T15:19:12.264Z,4.03
2018-01-26T15:21:39.723Z,4.30
2018-01-26T15:24:07.176Z,4.47
2018-01-26T15:26:35.593Z,4.35
2018-01-26T15:29:03.037Z,4.28
2018-01-26T15:31:30.564Z,4.70
2018-01-26T15:33:58.024Z,4.22
2018-01-26T15:36:25.578Z,5.10
2018-01-26T15:38:53.028Z,4.68
2018-01-26T15:41:20.500Z,3.72
2018-01-26T15:43:48.043Z,7.32
2018-01-26T15:46:15.506Z,5.90
2018-01-26T15:48:42.977Z,5.00
2018-01-26T15:51:10.522Z,6.28
2018-01-26T15:53:37.982Z,5.55
2018-01-26T15:56:05.427Z,6.10
2018-01-26T15:58:32.997Z,5.45
2018-01-26T16:01:01.237Z,7.20
2018-01-26T16:03:28.700Z,6.60
2018-01-26T16:05:56.238Z,7.22
2018-01-26T16:08:23.687Z,7.32
2018-01-26T16:10:51.150Z,7.00
2018-01-26T16:13:18.641Z,7.97
2018-01-26T16:16:01.979Z,6.90
2018-01-26T16:18:29.536Z,7.85
2018-01-26T16:20:57.096Z,7.97
2018-01-26T16:23:24.657Z,7.90
2018-01-26T16:25:52.220Z,7.43
2018-01-26T16:28:19.678Z,7.78
2018-01-26T16:30:47.131Z,8.70
2018-01-26T16:33:16.096Z,7.65
2018-01-26T16:35:43.576Z,8.65
2018-01-26T16:38:12.548Z,7.43
2018-01-26T16:40:40.013Z,8.50
2018-01-26T16:43:07.476Z,8.77
2018-01-26T16:45:35.036Z,9.55
2018-01-26T16:48:02.498Z,9.85
2018-01-26T16:50:29.959Z,10.13
2018-01-26T16:52:57.420Z,9.68
2018-01-26T16:55:24.871Z,9.38
2018-01-26T16:57:52.332Z,9.55
2018-01-26T17:00:19.888Z,9.68
2018-01-26T17:02:47.451Z,9.02
2018-01-26T17:05:14.996Z,10.02
2018-01-26T17:07:42.456Z,10.13
2018-01-26T17:10:09.916Z,10.18
2018-01-26T17:12:37.637Z,9.95
2018-01-26T17:15:05.084Z,8.95
2018-01-26T17:17:32.562Z,9.70
2018-01-26T17:20:00.062Z,10.43
2018-01-26T17:22:28.325Z,9.43
2018-01-26T17:24:57.292Z,11.52
2018-01-26T17:27:24.875Z,9.70
2018-01-26T17:29:52.436Z,10.25
2018-01-26T17:32:19.933Z,9.75
2018-01-26T17:34:47.452Z,9.88
2018-01-26T17:37:14.910Z,9.30
2018-01-26T17:39:42.383Z,10.65
2018-01-26T17:42:10.644Z,11.43
2018-01-26T17:44:38.253Z,9.75
2018-01-26T17:47:05.713Z,10.43
2018-01-26T17:49:33.167Z,9.55
2018-01-26T17:52:00.637Z,11.15
2018-01-26T17:54:28.106Z,9.88
2018-01-26T17:56:55.565Z,8.77
2018-01-26T17:59:23.029Z,8.80
2018-01-26T18:01:50.488Z,9.88
2018-01-26T18:04:17.952Z,11.32
2018-01-26T18:06:45.403Z,9.63
2018-01-26T18:09:12.889Z,9.80
2018-01-26T18:11:41.112Z,10.20
2018-01-26T18:14:08.568Z,9.73
2018-01-26T18:16:36.039Z,10.20
2018-01-26T18:19:03.513Z,10.30
2018-01-26T18:21:30.974Z,10.07
2018-01-26T18:23:58.431Z,9.32
2018-01-26T18:26:25.908Z,10.48
2018-01-26T18:28:54.144Z,14.82
2018-01-26T18:31:21.715Z,17.37
2018-01-26T18:33:49.273Z,12.90
2018-01-26T18:36:16.741Z,10.57
2018-01-26T18:38:44.294Z,11.18
2018-01-26T18:41:11.759Z,10.48
2018-01-26T18:43:40.066Z,10.63
2018-01-26T18:46:07.592Z,11.25
2018-01-26T18:48:35.141Z,11.00
2018-01-26T18:51:02.596Z,9.85
2018-01-26T18:53:30.152Z,12.13
2018-01-26T18:55:57.655Z,10.13
2018-01-26T18:58:25.869Z,10.38
2018-01-26T19:00:53.323Z,12.05
2018-01-26T19:03:20.891Z,11.25
2018-01-26T19:05:48.352Z,10.32
2018-01-26T19:08:15.821Z,10.68
2018-01-26T19:10:43.373Z,10.48
2018-01-26T19:13:10.920Z,10.70
2018-01-26T19:15:38.493Z,11.32
2018-01-26T19:18:05.961Z,10.75
2018-01-26T19:20:33.500Z,12.40
2018-01-26T19:23:00.986Z,11.55
2018-01-26T19:25:29.226Z,11.27
2018-01-26T19:27:56.796Z,11.00
2018-01-26T19:30:24.284Z,10.70
2018-01-26T19:32:52.508Z,11.10
2018-01-26T19:35:19.981Z,11.23
2018-01-26T19:37:47.544Z,11.25
2018-01-26T19:40:15.100Z,11.07
2018-01-26T19:42:42.567Z,11.30
2018-01-26T19:45:10.117Z,13.85
2018-01-26T19:47:37.581Z,13.88
2018-01-26T19:50:05.144Z,12.90
2018-01-26T19:52:32.746Z,12.40
2018-01-26T19:55:00.208Z,12.02
2018-01-26T19:57:27.673Z,11.95
2018-01-26T19:59:55.156Z,12.43
2018-01-26T20:02:22.619Z,13.10
2018-01-26T20:05:07.913Z,12.15
2018-01-26T20:07:41.920Z,11.32
2018-01-26T20:10:10.185Z,11.85
2018-01-26T20:12:43.363Z,14.60
2018-01-26T20:15:10.819Z,12.95
2018-01-26T20:17:39.792Z,12.70
2018-01-26T20:20:07.272Z,12.23
2018-01-26T20:22:34.837Z,11.68
2018-01-26T20:25:02.296Z,11.93
2018-01-26T20:27:29.849Z,12.32
2018-01-26T20:29:57.308Z,13.25
2018-01-26T20:32:24.874Z,14.05
2018-01-26T20:34:52.351Z,12.60
2018-01-26T20:37:20.576Z,12.63
2018-01-26T20:39:48.056Z,14.52
2018-01-26T20:42:15.517Z,13.13
2018-01-26T20:44:42.981Z,14.05
2018-01-26T20:47:10.528Z,14.80
2018-01-26T20:49:37.978Z,14.15
2018-01-26T20:52:05.541Z,15.05
2018-01-26T20:54:33.005Z,14.77
2018-01-26T20:57:00.652Z,13.60
2018-01-26T20:59:28.124Z,14.63
2018-01-26T21:01:56.352Z,13.85
2018-01-26T21:04:23.826Z,15.23
2018-01-26T21:06:51.290Z,13.95
2018-01-26T21:09:18.917Z,14.57
2018-01-26T21:11:46.393Z,14.70
2018-01-26T21:14:13.852Z,14.10
2018-01-26T21:16:41.319Z,13.25
2018-01-26T21:19:08.853Z,15.88
2018-01-26T21:21:37.065Z,14.35
2018-01-26T21:24:04.527Z,15.32
2018-01-26T21:26:32.005Z,15.80
2018-01-26T21:29:00.310Z,14.52
2018-01-26T21:31:27.755Z,15.95
2018-01-26T21:33:55.267Z,15.88
2018-01-26T21:36:22.815Z,15.20
2018-01-26T21:38:50.289Z,15.10
2018-01-26T21:41:17.744Z,16.20
2018-01-26T21:43:45.208Z,15.98
2018-01-26T21:46:12.756Z,14.25
2018-01-26T21:48:40.316Z,15.45
2018-01-26T21:51:09.305Z,15.73
2018-01-26T21:53:36.860Z,16.02
2018-01-26T21:56:04.429Z,17.45
2018-01-26T21:58:31.979Z,15.88
2018-01-26T22:00:59.490Z,15.45
2018-01-26T22:03:26.975Z,16.60
2018-01-26T22:05:54.445Z,17.85
2018-01-26T22:08:21.899Z,17.62
2018-01-26T22:10:49.365Z,17.30
2018-01-26T22:13:16.831Z,16.85
2018-01-26T22:15:44.380Z,17.75
2018-01-26T22:18:12.013Z,16.45
2018-01-26T22:20:39.479Z,15.55
2018-01-26T22:23:06.948Z,15.82
2018-01-26T22:25:34.412Z,18.83
2018-01-26T22:28:02.642Z,18.27
2018-01-26T22:30:30.135Z,17.92
2018-01-26T22:32:57.595Z,18.37
2018-01-26T22:35:25.061Z,17.77
2018-01-26T22:37:52.616Z,18.85
2018-01-26T22:40:20.167Z,18.75
2018-01-26T22:42:47.653Z,20.23
2018-01-26T22:45:15.892Z,18.20
2018-01-26T22:47:43.423Z,17.92
2018-01-26T22:50:10.980Z,20.73
2018-01-26T22:52:38.481Z,21.45
2018-01-26T22:55:06.036Z,22.80
2018-01-26T22:57:35.020Z,21.60
2018-01-26T23:00:02.494Z,21.83
2018-01-26T23:02:30.050Z,20.10
2018-01-26T23:04:57.609Z,20.58
2018-01-26T23:07:25.084Z,20.48
2018-01-26T23:09:53.313Z,22.08
2018-01-26T23:12:20.800Z,19.67
2018-01-26T23:14:48.378Z,21.83
2018-01-26T23:17:16.606Z,20.80
2018-01-26T23:19:44.083Z,22.08
2018-01-26T23:22:11.645Z,25.20
2018-01-26T23:24:39.113Z,21.65
2018-01-26T23:27:06.615Z,19.17
2018-01-26T23:29:34.113Z,20.90
2018-01-26T23:32:01.568Z,17.83
2018-01-26T23:34:29.028Z,18.85
2018-01-26T23:36:56.598Z,19.70
2018-01-26T23:39:24.144Z,18.37
2018-01-26T23:41:51.706Z,20.40
2018-01-26T23:44:19.185Z,20.30
2018-01-26T23:46:47.407Z,18.55
2018-01-26T23:49:14.954Z,18.83
2018-01-26T23:51:42.409Z,17.62
2018-01-26T23:54:09.877Z,20.37
2018-01-26T23:56:37.364Z,20.37
2018-01-26T23:59:04.880Z,20.37
